Time;durP1;ratioP1;P1;durP2;ratioP2;P2;SDS_P1;SDS_P2;PMS_P1;PMS_P2;Temp;Humidity;BMP_temperature;BMP_pressure;BME280_temperature;BME280_humidity;BME280_pressure;Samples;Min_cycle;Max_cycle;Signal;HPM_P1;HPM_P2
2023/10/26 00:01:09;;;;;;;96.33;89.23;;;9.80;93.30;;;;;;5074843;28;20246;-90
2023/10/26 00:03:34;;;;;;;95.37;88.37;;;9.90;93.20;;;;;;5073287;28;20178;-90
2023/10/26 00:06:00;;;;;;;94.53;88.03;;;9.80;93.20;;;;;;5073154;28;20191;-89
2023/10/26 00:08:25;;;;;;;93.87;87.13;;;9.80;93.20;;;;;;5072171;28;20690;-90
2023/10/26 00:10:51;;;;;;;95.47;88.43;;;9.80;93.20;;;;;;5073150;28;20548;-90
2023/10/26 00:13:17;;;;;;;94.37;87.27;;;9.80;93.20;;;;;;5074210;28;20175;-88
2023/10/26 00:15:42;;;;;;;95.47;88.43;;;9.80;93.20;;;;;;5073028;28;20198;-89
2023/10/26 00:18:08;;;;;;;94.97;87.87;;;9.80;93.20;;;;;;5074204;28;20175;-89
2023/10/26 00:20:33;;;;;;;94.97;87.87;;;9.80;93.20;;;;;;5074121;28;20171;-88
2023/10/26 00:22:59;;;;;;;91.17;84.70;;;9.70;93.10;;;;;;5073207;28;20210;-88
2023/10/26 00:25:24;;;;;;;65.87;60.57;;;9.70;93.10;;;;;;5072634;28;20218;-89
2023/10/26 00:27:51;;;;;;;65.80;60.60;;;9.70;93.10;;;;;;5073944;28;20222;-88
2023/10/26 00:30:17;;;;;;;93.63;86.87;;;9.70;93.00;;;;;;5074069;28;20543;-91
2023/10/26 00:32:42;;;;;;;94.00;87.10;;;9.70;93.00;;;;;;5072768;28;20171;-91
2023/10/26 00:35:08;;;;;;;96.63;89.47;;;9.70;93.00;;;;;;5073818;28;20192;-91
2023/10/26 00:37:34;;;;;;;62.60;57.47;;;9.70;92.90;;;;;;5072609;28;20202;-90
2023/10/26 00:39:59;;;;;;;69.80;63.57;;;9.70;92.80;;;;;;5074049;28;20179;-91
2023/10/26 00:42:26;;;;;;;67.43;62.00;;;9.70;92.80;;;;;;5072520;28;20179;-90
2023/10/26 00:44:53;;;;;;;65.70;60.80;;;9.70;92.80;;;;;;5072502;28;20710;-91
2023/10/26 00:47:19;;;;;;;63.50;58.50;;;9.70;92.80;;;;;;5072491;28;20249;-90
2023/10/26 00:49:45;;;;;;;67.00;61.77;;;9.70;92.70;;;;;;5072551;28;20175;-91
2023/10/26 00:52:12;;;;;;;64.17;58.97;;;9.60;92.70;;;;;;5072405;28;20552;-90
2023/10/26 00:54:41;;;;;;;64.57;59.33;;;9.60;92.70;;;;;;5072370;28;20199;-90
2023/10/26 00:57:08;;;;;;;62.90;58.00;;;9.60;92.60;;;;;;5072281;28;20175;-90
2023/10/26 00:59:34;;;;;;;61.90;56.87;;;9.60;92.60;;;;;;5072574;28;20194;-91
2023/10/26 01:02:01;;;;;;;64.90;60.10;;;9.60;92.60;;;;;;5073565;28;20522;-91
2023/10/26 01:04:27;;;;;;;60.60;56.00;;;9.60;92.50;;;;;;5073037;28;20186;-90
2023/10/26 01:06:52;;;;;;;63.63;58.43;;;9.60;92.50;;;;;;5072102;28;20199;-91
2023/10/26 01:09:19;;;;;;;63.80;58.87;;;9.60;92.50;;;;;;5072086;28;20642;-92
2023/10/26 01:11:45;;;;;;;64.80;59.97;;;9.60;92.50;;;;;;5072501;28;20198;-89
2023/10/26 01:14:11;;;;;;;65.17;59.50;;;9.60;92.50;;;;;;5072039;28;20167;-90
2023/10/26 01:16:37;;;;;;;62.67;57.97;;;9.60;92.50;;;;;;5073306;28;20195;-91
2023/10/26 01:19:03;;;;;;;58.00;53.60;;;9.60;92.50;;;;;;5071785;28;20233;-90
2023/10/26 01:21:30;;;;;;;61.43;56.73;;;9.60;92.50;;;;;;5072096;28;20270;-91
2023/10/26 01:23:56;;;;;;;58.63;54.17;;;9.60;92.40;;;;;;5072094;28;20258;-91
2023/10/26 01:26:21;;;;;;;58.47;54.10;;;9.60;92.40;;;;;;5072017;28;20221;-91
2023/10/26 01:28:47;;;;;;;58.47;54.23;;;9.60;92.30;;;;;;5072278;28;20175;-90
2023/10/26 01:31:17;;;;;;;62.77;57.90;;;9.60;92.30;;;;;;5072714;28;20172;-91
2023/10/26 01:33:43;;;;;;;58.30;53.53;;;9.60;92.30;;;;;;5071880;28;20175;-90
2023/10/26 01:36:08;;;;;;;56.47;52.17;;;9.60;92.20;;;;;;5071779;28;20194;-91
2023/10/26 01:38:34;;;;;;;54.90;50.80;;;9.60;92.20;;;;;;5071781;28;20175;-90
2023/10/26 01:41:00;;;;;;;60.33;55.80;;;9.60;92.10;;;;;;5071902;28;20182;-89
2023/10/26 01:43:26;;;;;;;62.23;57.40;;;9.60;92.20;;;;;;5072007;28;20270;-91
2023/10/26 01:45:51;;;;;;;58.93;54.47;;;9.60;92.20;;;;;;5071854;28;20207;-91
2023/10/26 01:48:17;;;;;;;60.90;56.47;;;9.70;92.10;;;;;;5072310;28;20199;-90
2023/10/26 01:50:42;;;;;;;59.23;54.60;;;9.60;92.10;;;;;;5071825;28;20524;-91
2023/10/26 01:53:08;;;;;;;61.43;56.80;;;9.70;92.10;;;;;;5073265;28;20194;-92
2023/10/26 01:55:33;;;;;;;62.97;58.17;;;9.70;92.10;;;;;;5071699;28;20541;-91
2023/10/26 01:57:59;;;;;;;68.00;62.70;;;9.60;92.10;;;;;;5071774;28;20236;-91
2023/10/26 02:00:25;;;;;;;66.00;61.10;;;9.60;92.10;;;;;;5071721;28;20654;-91
2023/10/26 02:02:50;;;;;;;68.03;62.93;;;9.60;92.10;;;;;;5071576;28;20184;-91
2023/10/26 02:05:16;;;;;;;66.27;61.47;;;9.60;92.20;;;;;;5071695;28;20199;-91
2023/10/26 02:07:42;;;;;;;100.27;93.27;;;9.60;92.20;;;;;;5071545;28;20199;-91
2023/10/26 02:10:12;;;;;;;97.33;90.43;;;9.50;92.20;;;;;;5072737;28;20171;-91
2023/10/26 02:12:37;;;;;;;94.47;87.93;;;9.50;92.30;;;;;;5071669;28;20211;-91
2023/10/26 02:15:03;;;;;;;96.23;89.63;;;9.50;92.30;;;;;;5071477;28;20251;-91
2023/10/26 02:17:29;;;;;;;97.40;90.60;;;9.50;92.40;;;;;;5072861;28;20176;-92
2023/10/26 02:19:54;;;;;;;94.83;88.30;;;9.50;92.40;;;;;;5071965;28;20681;-90
2023/10/26 02:22:20;;;;;;;97.87;91.00;;;9.60;92.50;;;;;;5071478;28;20599;-91
2023/10/26 02:24:45;;;;;;;96.97;90.37;;;9.50;92.50;;;;;;5072615;28;20199;-89
2023/10/26 02:27:11;;;;;;;70.80;65.37;;;9.60;92.60;;;;;;5071575;28;20214;-91
2023/10/26 02:29:36;;;;;;;70.50;65.47;;;9.60;92.60;;;;;;5071378;28;20168;-90
2023/10/26 02:32:03;;;;;;;101.30;94.20;;;9.60;92.60;;;;;;5074618;28;20180;-91
2023/10/26 02:34:28;;;;;;;102.23;95.07;;;9.60;92.60;;;;;;5074954;28;20183;-91
2023/10/26 02:36:54;;;;;;;77.37;71.40;;;9.60;92.70;;;;;;5075104;28;20181;-90
2023/10/26 02:39:19;;;;;;;76.60;70.73;;;9.60;92.70;;;;;;5075028;28;20643;-90
2023/10/26 02:41:45;;;;;;;79.27;73.20;;;9.50;92.70;;;;;;5075178;28;20179;-91
2023/10/26 02:44:10;;;;;;;79.37;73.57;;;9.50;92.80;;;;;;5075036;28;20179;-90
2023/10/26 02:46:36;;;;;;;82.60;76.13;;;9.50;92.80;;;;;;5074761;28;20210;-92
2023/10/26 02:49:02;;;;;;;84.07;77.70;;;9.50;92.90;;;;;;5075889;28;20217;-92
2023/10/26 02:51:28;;;;;;;86.73;80.13;;;9.50;93.00;;;;;;5074907;28;20172;-92
2023/10/26 02:53:53;;;;;;;89.87;83.17;;;9.50;93.00;;;;;;5075637;28;20301;-92
2023/10/26 02:56:19;;;;;;;85.50;79.40;;;9.50;93.00;;;;;;5074625;28;20202;-91
2023/10/26 02:58:44;;;;;;;88.87;82.40;;;9.50;93.10;;;;;;5074549;28;20175;-91
2023/10/26 03:01:10;;;;;;;90.53;84.10;;;9.50;93.20;;;;;;5074583;28;20651;-90
2023/10/26 03:03:35;;;;;;;96.40;89.03;;;9.50;93.20;;;;;;5074670;28;20647;-91
2023/10/26 03:06:02;;;;;;;92.37;84.70;;;9.50;93.30;;;;;;5074469;28;20191;-91
2023/10/26 03:08:27;;;;;;;94.33;87.30;;;9.50;93.40;;;;;;5074429;28;20219;-92
2023/10/26 03:10:53;;;;;;;88.93;82.30;;;9.50;93.50;;;;;;5074464;28;20683;-91
2023/10/26 03:13:18;;;;;;;91.07;84.03;;;9.50;93.50;;;;;;5074474;28;20179;-91
2023/10/26 03:15:44;;;;;;;90.37;82.47;;;9.50;93.60;;;;;;5074245;28;20286;-90
2023/10/26 03:18:09;;;;;;;110.80;102.80;;;9.50;93.60;;;;;;5075480;28;20294;-90
2023/10/26 03:20:35;;;;;;;121.33;112.53;;;9.50;93.70;;;;;;5074260;28;20175;-91
2023/10/26 03:23:01;;;;;;;126.83;117.70;;;9.50;93.70;;;;;;5079005;28;20182;-93
2023/10/26 03:25:26;;;;;;;101.47;93.57;;;9.60;93.70;;;;;;5079983;28;20211;-90
2023/10/26 03:27:52;;;;;;;93.57;86.23;;;9.60;93.80;;;;;;5073977;28;20709;-91
2023/10/26 03:30:18;;;;;;;95.20;87.73;;;9.60;93.80;;;;;;5074047;28;20179;-91
2023/10/26 03:32:44;;;;;;;125.33;115.57;;;9.60;93.90;;;;;;5074353;28;20188;-91
2023/10/26 03:35:10;;;;;;;123.83;114.77;;;9.60;93.90;;;;;;5075136;28;20607;-92
2023/10/26 03:37:38;;;;;;;107.20;98.63;;;9.60;93.90;;;;;;5073807;28;20183;-91
2023/10/26 03:40:05;;;;;;;95.63;87.73;;;9.60;93.90;;;;;;5074178;28;20185;-90
2023/10/26 03:42:31;;;;;;;96.87;88.77;;;9.60;94.00;;;;;;5073787;28;20214;-91
2023/10/26 03:44:56;;;;;;;126.67;117.17;;;9.70;94.00;;;;;;5075211;28;20618;-91
2023/10/26 03:47:22;;;;;;;130.43;120.77;;;9.70;94.00;;;;;;5073868;28;20592;-89
2023/10/26 03:49:51;;;;;;;98.93;90.83;;;9.60;94.00;;;;;;5074908;28;20650;-92
2023/10/26 03:52:20;;;;;;;97.53;89.60;;;9.70;94.10;;;;;;5074828;28;20168;-91
2023/10/26 03:54:46;;;;;;;100.93;92.63;;;9.60;94.10;;;;;;5073528;28;20191;-91
2023/10/26 03:57:13;;;;;;;132.37;122.10;;;9.60;94.10;;;;;;5073880;28;20214;-91
2023/10/26 03:59:38;;;;;;;134.90;124.57;;;9.60;94.20;;;;;;5073405;28;20209;-91
2023/10/26 04:02:04;;;;;;;102.63;93.57;;;9.60;94.20;;;;;;5073474;28;20258;-91
2023/10/26 04:04:29;;;;;;;104.07;95.23;;;9.60;94.20;;;;;;5074172;28;20635;-91
2023/10/26 04:06:55;;;;;;;130.13;120.20;;;9.60;94.20;;;;;;5073792;28;20199;-91
2023/10/26 04:09:20;;;;;;;132.73;122.57;;;9.60;94.20;;;;;;5073350;28;20167;-91
2023/10/26 04:11:46;;;;;;;135.27;124.77;;;9.60;94.30;;;;;;5073271;28;20172;-91
2023/10/26 04:14:11;;;;;;;106.17;97.40;;;9.60;94.30;;;;;;5073222;28;20174;-92
2023/10/26 04:16:37;;;;;;;106.90;98.07;;;9.60;94.30;;;;;;5073520;28;20191;-91
2023/10/26 04:19:02;;;;;;;107.00;98.03;;;9.50;94.30;;;;;;5073353;28;20181;-91
2023/10/26 04:21:28;;;;;;;108.47;99.00;;;9.60;94.40;;;;;;5073206;28;20262;-91
2023/10/26 04:23:54;;;;;;;109.93;100.93;;;9.50;94.40;;;;;;5073006;28;20168;-91
2023/10/26 04:26:19;;;;;;;102.33;93.17;;;9.50;94.40;;;;;;5074036;28;20294;-91
2023/10/26 04:28:45;;;;;;;108.73;99.40;;;9.50;94.50;;;;;;5072767;28;20203;-90
2023/10/26 04:31:10;;;;;;;111.90;102.60;;;9.50;94.50;;;;;;5072987;28;20176;-91
2023/10/26 04:33:36;;;;;;;112.00;102.30;;;9.50;94.60;;;;;;5072780;28;20175;-91
2023/10/26 04:36:02;;;;;;;113.73;103.50;;;9.50;94.60;;;;;;5072690;28;20306;-92
2023/10/26 04:38:28;;;;;;;108.30;98.47;;;9.50;94.60;;;;;;5072860;28;20179;-91
2023/10/26 04:40:55;;;;;;;115.50;105.67;;;9.50;94.60;;;;;;5073094;28;20207;-91
2023/10/26 04:43:20;;;;;;;107.97;98.50;;;9.50;94.60;;;;;;5074037;28;20605;-92
2023/10/26 04:45:47;;;;;;;104.03;95.30;;;9.50;94.60;;;;;;5072662;28;20199;-92
2023/10/26 04:48:12;;;;;;;110.53;100.97;;;9.50;94.60;;;;;;5072761;28;20203;-91
2023/10/26 04:50:38;;;;;;;113.03;102.90;;;9.50;94.70;;;;;;5072633;28;20171;-91
2023/10/26 04:53:04;;;;;;;113.07;103.13;;;9.50;94.70;;;;;;5072209;28;20172;-91
2023/10/26 04:55:33;;;;;;;118.27;107.83;;;9.50;94.70;;;;;;5072842;28;20191;-92
2023/10/26 04:58:00;;;;;;;112.63;102.87;;;9.50;94.70;;;;;;5072635;28;20193;-91
2023/10/26 05:00:26;;;;;;;113.23;103.43;;;9.50;94.70;;;;;;5072446;28;20179;-92
2023/10/26 05:02:52;;;;;;;112.80;103.20;;;9.50;94.70;;;;;;5073076;28;20172;-91
2023/10/26 05:05:17;;;;;;;114.70;104.97;;;9.50;94.70;;;;;;5073536;28;20564;-91
2023/10/26 05:07:44;;;;;;;113.30;103.87;;;9.50;94.80;;;;;;5073358;28;20277;-91
2023/10/26 05:10:10;;;;;;;111.27;101.63;;;9.50;94.80;;;;;;5072268;28;20174;-91
2023/10/26 05:12:35;;;;;;;110.43;100.97;;;9.50;94.80;;;;;;5072185;28;20171;-91
2023/10/26 05:15:01;;;;;;;109.93;100.70;;;9.50;94.80;;;;;;5073301;28;20187;-91
2023/10/26 05:17:27;;;;;;;108.40;99.10;;;9.50;94.80;;;;;;5072258;28;20205;-92
2023/10/26 05:19:52;;;;;;;111.10;101.97;;;9.50;94.90;;;;;;5072232;28;20220;-92
2023/10/26 05:22:19;;;;;;;111.43;101.57;;;9.50;94.80;;;;;;5072177;28;20179;-91
2023/10/26 05:24:45;;;;;;;113.73;103.93;;;9.50;94.90;;;;;;5072233;28;20621;-92
2023/10/26 05:27:10;;;;;;;113.60;103.80;;;9.50;94.90;;;;;;5071957;28;20210;-92
2023/10/26 05:29:36;;;;;;;115.10;105.13;;;9.50;94.90;;;;;;5072089;28;20183;-91
2023/10/26 05:32:02;;;;;;;120.77;110.23;;;9.50;94.90;;;;;;5072706;28;20548;-92
2023/10/26 05:34:29;;;;;;;118.73;108.33;;;9.50;94.90;;;;;;5072027;28;20266;-92
2023/10/26 05:36:55;;;;;;;118.93;108.90;;;9.40;94.90;;;;;;5072007;28;20191;-91
2023/10/26 05:39:20;;;;;;;122.50;112.07;;;9.40;94.90;;;;;;5073590;28;20548;-91
2023/10/26 05:41:55;;;;;;;116.87;106.87;;;9.40;94.90;;;;;;5072075;28;20175;-91
2023/10/26 05:44:20;;;;;;;117.07;107.13;;;9.40;94.90;;;;;;5072814;28;20202;-91
2023/10/26 05:46:46;;;;;;;124.60;113.63;;;9.40;94.90;;;;;;5071790;28;20238;-91
2023/10/26 05:49:11;;;;;;;115.93;105.83;;;9.40;94.90;;;;;;5071859;28;20189;-91
2023/10/26 05:51:37;;;;;;;117.83;107.63;;;9.40;94.90;;;;;;5073105;28;20176;-91
2023/10/26 05:54:02;;;;;;;116.73;107.03;;;9.40;95.00;;;;;;5073115;28;20163;-91
2023/10/26 05:56:28;;;;;;;118.23;108.37;;;9.40;95.00;;;;;;5073054;28;20199;-91
2023/10/26 05:58:53;;;;;;;153.67;141.03;;;9.40;95.00;;;;;;5072379;28;20293;-91
2023/10/26 06:01:19;;;;;;;150.50;138.60;;;9.40;95.00;;;;;;5071843;28;20175;-91
2023/10/26 06:03:45;;;;;;;156.47;143.50;;;9.40;95.00;;;;;;5071697;28;20167;-90
2023/10/26 06:06:10;;;;;;;155.90;143.60;;;9.40;95.00;;;;;;5074088;28;20560;-91
2023/10/26 06:08:37;;;;;;;152.57;140.43;;;9.40;95.00;;;;;;5076824;28;20199;-91
2023/10/26 06:11:02;;;;;;;147.53;135.93;;;9.30;95.00;;;;;;5075742;28;20186;-92
2023/10/26 06:13:28;;;;;;;155.97;143.43;;;9.40;95.10;;;;;;5075799;28;20180;-91
2023/10/26 06:15:53;;;;;;;151.13;139.33;;;9.40;95.10;;;;;;5076667;28;20195;-91
2023/10/26 06:18:19;;;;;;;115.23;105.07;;;9.40;95.10;;;;;;5075701;28;20182;-91
2023/10/26 06:20:57;;;;;;;117.20;107.13;;;9.40;95.10;;;;;;5076344;28;20540;-91
2023/10/26 06:23:22;;;;;;;153.10;140.83;;;9.40;95.10;;;;;;5076706;28;20216;-91
2023/10/26 06:25:48;;;;;;;155.43;142.87;;;9.40;95.10;;;;;;5076305;28;20215;-91
2023/10/26 06:28:13;;;;;;;112.17;102.43;;;9.40;95.20;;;;;;5075262;28;20207;-91
2023/10/26 06:30:39;;;;;;;115.93;105.57;;;9.50;95.20;;;;;;5075914;28;20177;-91
2023/10/26 06:33:04;;;;;;;111.67;101.83;;;9.50;95.20;;;;;;5075627;28;20182;-91
2023/10/26 06:35:30;;;;;;;107.10;97.90;;;9.50;95.20;;;;;;5075106;28;20191;-91
2023/10/26 06:37:55;;;;;;;106.87;97.47;;;9.50;95.20;;;;;;5075538;28;20186;-91
2023/10/26 06:40:21;;;;;;;112.37;102.70;;;9.50;95.20;;;;;;5074908;28;20183;-91
2023/10/26 06:42:49;;;;;;;108.80;99.17;;;9.50;95.20;;;;;;5075541;28;20665;-91
2023/10/26 06:45:15;;;;;;;110.87;101.03;;;9.50;95.30;;;;;;5074893;28;20226;-91
2023/10/26 06:47:40;;;;;;;109.97;100.63;;;9.50;95.30;;;;;;5075037;28;20674;-91
2023/10/26 06:50:07;;;;;;;112.70;103.40;;;9.50;95.30;;;;;;5074928;28;20556;-91
2023/10/26 06:52:32;;;;;;;111.80;102.17;;;9.50;95.30;;;;;;5074875;28;20179;-92
2023/10/26 06:54:58;;;;;;;107.47;98.07;;;9.50;95.30;;;;;;5074755;28;20198;-92
2023/10/26 06:57:24;;;;;;;109.43;100.17;;;9.50;95.40;;;;;;5074852;28;20185;-91
2023/10/26 06:59:49;;;;;;;110.90;101.47;;;9.60;95.40;;;;;;5074775;28;20183;-91
2023/10/26 07:02:15;;;;;;;110.67;101.77;;;9.60;95.40;;;;;;5074673;28;20179;-91
2023/10/26 07:04:40;;;;;;;111.87;102.27;;;9.60;95.40;;;;;;5074545;28;20199;-92
2023/10/26 07:07:07;;;;;;;111.00;101.63;;;9.70;95.40;;;;;;5074560;28;20205;-91
2023/10/26 07:09:33;;;;;;;109.00;100.30;;;9.70;95.40;;;;;;5075849;28;20195;-91
2023/10/26 07:11:58;;;;;;;113.13;103.70;;;9.70;95.40;;;;;;5074465;28;20202;-92
2023/10/26 07:14:25;;;;;;;108.47;99.63;;;9.80;95.50;;;;;;5076268;28;20642;-90
2023/10/26 07:16:51;;;;;;;108.00;98.97;;;9.80;95.50;;;;;;5078879;28;20171;-90
2023/10/26 07:19:16;;;;;;;106.00;97.43;;;9.80;95.50;;;;;;5076339;28;20178;-91
2023/10/26 07:21:44;;;;;;;110.43;101.43;;;9.80;95.50;;;;;;5074703;28;20183;-91
2023/10/26 07:24:10;;;;;;;109.73;100.77;;;9.80;95.50;;;;;;5075848;28;20626;-90
2023/10/26 07:26:35;;;;;;;111.50;102.53;;;9.90;95.50;;;;;;5075517;28;20214;-91
2023/10/26 07:29:01;;;;;;;110.90;102.07;;;9.90;95.50;;;;;;5074344;28;20171;-91
2023/10/26 07:31:26;;;;;;;113.10;103.50;;;9.90;95.50;;;;;;5074283;28;20182;-92
2023/10/26 07:33:52;;;;;;;113.63;104.23;;;10.00;95.50;;;;;;5074732;28;20546;-91
2023/10/26 07:36:18;;;;;;;109.17;100.27;;;10.00;95.50;;;;;;5074075;28;20195;-91
2023/10/26 07:38:44;;;;;;;106.23;97.40;;;10.00;95.50;;;;;;5074444;28;20179;-91
2023/10/26 07:41:10;;;;;;;126.70;117.10;;;10.00;95.50;;;;;;5073889;28;20171;-91
2023/10/26 07:43:35;;;;;;;137.43;127.33;;;10.10;95.50;;;;;;5073986;28;20172;-92
2023/10/26 07:46:01;;;;;;;139.00;128.80;;;10.10;95.50;;;;;;5075137;28;20217;-91
2023/10/26 07:48:27;;;;;;;143.67;133.07;;;10.10;95.40;;;;;;5073848;28;20195;-91
2023/10/26 07:50:52;;;;;;;108.27;99.73;;;10.20;95.40;;;;;;5073833;28;20183;-91
2023/10/26 07:53:18;;;;;;;112.00;103.43;;;10.20;95.40;;;;;;5073704;28;20220;-91
2023/10/26 07:55:44;;;;;;;142.63;132.23;;;10.20;95.40;;;;;;5073620;28;20309;-91
2023/10/26 07:58:09;;;;;;;139.23;129.03;;;10.20;95.40;;;;;;5073633;28;20558;-93
2023/10/26 08:00:39;;;;;;;143.17;132.40;;;10.30;95.30;;;;;;5073731;28;20179;-89
2023/10/26 08:03:05;;;;;;;110.40;101.87;;;10.30;95.30;;;;;;5073495;28;20191;-89
2023/10/26 08:05:30;;;;;;;111.83;103.30;;;10.30;95.30;;;;;;5073287;28;20199;-89
2023/10/26 08:07:56;;;;;;;113.67;104.83;;;10.40;95.20;;;;;;5073425;28;20241;-91
2023/10/26 08:10:24;;;;;;;142.07;131.57;;;10.50;95.20;;;;;;5073092;28;20317;-91
2023/10/26 08:12:53;;;;;;;144.40;134.03;;;10.50;95.20;;;;;;5073221;28;20195;-91
2023/10/26 08:15:20;;;;;;;112.67;103.80;;;10.50;95.10;;;;;;5074948;28;20248;-92
2023/10/26 08:17:46;;;;;;;111.30;102.50;;;10.50;95.10;;;;;;5076427;28;20742;-90
2023/10/26 08:20:11;;;;;;;113.57;105.13;;;10.60;95.00;;;;;;5073540;28;20209;-91
2023/10/26 08:22:37;;;;;;;141.50;131.33;;;10.60;95.00;;;;;;5074250;28;20529;-90
2023/10/26 08:25:03;;;;;;;134.97;125.07;;;10.70;94.90;;;;;;5072965;28;20686;-91
2023/10/26 08:27:29;;;;;;;114.20;105.70;;;10.70;94.90;;;;;;5072871;28;20749;-91
2023/10/26 08:29:55;;;;;;;113.80;105.20;;;10.70;94.80;;;;;;5072609;28;20261;-92
2023/10/26 08:32:20;;;;;;;112.83;104.63;;;10.70;94.80;;;;;;5073323;28;20175;-93
2023/10/26 08:34:46;;;;;;;139.43;129.70;;;10.70;94.70;;;;;;5072902;28;20191;-91
2023/10/26 08:37:12;;;;;;;141.97;132.30;;;10.60;94.60;;;;;;5072863;28;20183;-92
2023/10/26 08:39:38;;;;;;;113.83;105.53;;;10.70;94.60;;;;;;5073250;28;20201;-91
2023/10/26 08:42:04;;;;;;;116.67;108.03;;;10.70;94.50;;;;;;5074099;28;20224;-91
2023/10/26 08:44:30;;;;;;;119.43;110.23;;;10.70;94.50;;;;;;5072770;28;20172;-91
2023/10/26 08:47:02;;;;;;;143.77;133.30;;;10.70;94.50;;;;;;5073037;28;20701;-92
2023/10/26 08:49:28;;;;;;;145.10;134.57;;;10.70;94.50;;;;;;5072465;28;20175;-91
2023/10/26 08:51:54;;;;;;;111.23;103.00;;;10.80;94.50;;;;;;5073738;28;20174;-91
2023/10/26 08:54:20;;;;;;;109.43;101.60;;;10.80;94.50;;;;;;5072325;28;20206;-89
2023/10/26 08:56:46;;;;;;;137.57;128.20;;;10.80;94.50;;;;;;5074550;28;20178;-92
2023/10/26 08:59:12;;;;;;;138.90;129.50;;;10.80;94.40;;;;;;5077530;28;20175;-91
2023/10/26 09:01:37;;;;;;;139.90;130.73;;;10.80;94.40;;;;;;5077464;28;20180;-93
2023/10/26 09:04:10;;;;;;;104.83;97.57;;;10.90;94.30;;;;;;5077802;28;20173;-91
2023/10/26 09:06:44;;;;;;;104.13;96.93;;;10.90;94.30;;;;;;5072528;28;20195;-90
2023/10/26 09:09:09;;;;;;;102.77;95.33;;;10.90;94.30;;;;;;5072772;28;20178;-91
2023/10/26 09:11:35;;;;;;;98.53;91.83;;;11.00;94.30;;;;;;5074626;28;20167;-92
2023/10/26 09:14:19;;;;;;;92.50;86.27;;;10.90;94.10;;;;;;5082232;28;20288;-90
2023/10/26 09:16:46;;;;;;;95.53;88.93;;;11.00;94.10;;;;;;5080376;28;20648;-92
2023/10/26 09:19:16;;;;;;;96.57;89.90;;;10.90;94.10;;;;;;5072847;28;20167;-91
2023/10/26 09:21:53;;;;;;;92.33;85.73;;;11.00;94.00;;;;;;5072265;28;20539;-91
2023/10/26 09:24:26;;;;;;;92.13;85.83;;;11.00;94.00;;;;;;5072443;28;20174;-91
2023/10/26 09:26:59;;;;;;;88.93;82.67;;;11.00;94.00;;;;;;5073196;28;20274;-90
2023/10/26 09:29:38;;;;;;;92.30;85.73;;;11.10;93.90;;;;;;5074323;28;20152;-89
2023/10/26 09:32:04;;;;;;;86.83;81.20;;;11.10;93.90;;;;;;5074560;28;20619;-91
2023/10/26 09:34:30;;;;;;;86.30;80.27;;;11.10;93.80;;;;;;5072925;28;20171;-89
2023/10/26 09:37:05;;;;;;;82.43;76.63;;;11.10;93.70;;;;;;5073296;28;20163;-88
2023/10/26 09:39:33;;;;;;;76.27;70.97;;;11.10;93.60;;;;;;5073853;28;20182;-89
2023/10/26 09:42:02;;;;;;;74.63;69.23;;;11.10;93.40;;;;;;5078548;28;20182;-89
2023/10/26 09:44:29;;;;;;;62.80;58.47;;;11.10;93.30;;;;;;5078532;28;20262;-89
2023/10/26 09:46:55;;;;;;;68.40;63.40;;;11.10;92.90;;;;;;5078484;28;20709;-90
2023/10/26 09:49:23;;;;;;;69.07;64.30;;;11.20;92.80;;;;;;5078388;28;20171;-90
2023/10/26 09:51:48;;;;;;;66.57;61.97;;;11.30;92.80;;;;;;5078407;28;20174;-89
2023/10/26 09:54:15;;;;;;;61.87;57.60;;;11.30;92.60;;;;;;5079608;28;20642;-91
2023/10/26 09:56:47;;;;;;;56.23;52.33;;;11.30;92.40;;;;;;5078669;28;20194;-90
2023/10/26 09:59:13;;;;;;;53.17;49.53;;;11.30;92.10;;;;;;5079671;28;20160;-90
2023/10/26 10:01:40;;;;;;;51.00;47.60;;;11.30;91.80;;;;;;5093791;28;20163;-93
2023/10/26 10:04:09;;;;;;;49.60;46.20;;;11.30;91.40;;;;;;5105006;28;20158;-93
2023/10/26 10:06:52;;;;;;;52.40;48.80;;;11.30;91.10;;;;;;5104792;28;20183;-93
2023/10/26 10:09:25;;;;;;;46.30;43.10;;;11.30;91.00;;;;;;5105060;28;20185;-94
2023/10/26 10:12:10;;;;;;;51.43;47.93;;;11.30;90.70;;;;;;5104783;28;20194;-94
2023/10/26 10:14:51;;;;;;;52.40;48.60;;;11.30;90.80;;;;;;5104777;28;20181;-94
2023/10/26 10:17:43;;;;;;;50.67;47.17;;;11.40;90.80;;;;;;5104769;28;20159;-94
2023/10/26 10:20:17;;;;;;;48.20;45.00;;;11.30;90.70;;;;;;5103508;28;20175;-93
2023/10/26 10:22:47;;;;;;;44.73;41.73;;;11.40;90.40;;;;;;5104703;28;20238;-93
2023/10/26 10:25:13;;;;;;;40.93;37.73;;;11.30;90.20;;;;;;5103988;28;20197;-93
2023/10/26 10:27:40;;;;;;;40.00;37.20;;;11.30;89.60;;;;;;5104675;28;20198;-93
2023/10/26 10:30:13;;;;;;;40.20;37.47;;;11.30;89.50;;;;;;5104783;28;20163;-92
2023/10/26 10:32:46;;;;;;;41.60;38.63;;;11.30;89.20;;;;;;5104065;28;20155;-93
2023/10/26 10:35:22;;;;;;;45.00;42.00;;;11.30;89.20;;;;;;5102705;28;20195;-93
2023/10/26 10:38:13;;;;;;;42.83;39.93;;;11.40;89.40;;;;;;5102820;28;20159;-91
2023/10/26 10:40:40;;;;;;;45.27;42.23;;;11.40;89.50;;;;;;5100898;28;20170;-93
2023/10/26 10:43:06;;;;;;;46.00;42.90;;;11.40;89.50;;;;;;5101611;28;20168;-92
2023/10/26 10:45:31;;;;;;;46.23;43.13;;;11.40;89.70;;;;;;5104175;28;20179;-93
2023/10/26 10:47:57;;;;;;;45.77;42.57;;;11.30;89.50;;;;;;5103795;28;20205;-94
2023/10/26 10:50:27;;;;;;;45.83;42.83;;;11.20;89.50;;;;;;5102479;28;20180;-93
2023/10/26 10:52:54;;;;;;;47.93;44.57;;;11.20;89.80;;;;;;5094009;28;20201;-93
2023/10/26 10:55:23;;;;;;;45.10;41.90;;;11.30;89.90;;;;;;5087275;28;20219;-91
2023/10/26 10:57:57;;;;;;;44.83;41.93;;;11.20;89.80;;;;;;5088201;28;20174;-92
2023/10/26 11:00:24;;;;;;;47.00;43.80;;;11.20;89.80;;;;;;5076596;28;20551;-92
2023/10/26 11:02:52;;;;;;;47.03;43.73;;;11.30;89.90;;;;;;5075711;28;20171;-91
2023/10/26 11:05:17;;;;;;;64.30;60.10;;;11.30;89.90;;;;;;5076444;28;20195;-90
2023/10/26 11:07:43;;;;;;;67.40;62.80;;;11.30;89.80;;;;;;5079180;28;20203;-92
2023/10/26 11:10:09;;;;;;;66.07;61.67;;;11.30;89.80;;;;;;5079457;28;20175;-91
2023/10/26 11:12:34;;;;;;;63.70;59.50;;;11.30;89.50;;;;;;5084626;28;20175;-91
2023/10/26 11:15:01;;;;;;;63.70;59.03;;;11.30;89.40;;;;;;5084791;28;20195;-92
2023/10/26 11:17:28;;;;;;;67.13;62.90;;;11.30;89.40;;;;;;5084166;28;20171;-93
2023/10/26 11:19:55;;;;;;;49.00;45.80;;;11.30;89.50;;;;;;5090154;28;20179;-93
2023/10/26 11:22:22;;;;;;;47.27;44.17;;;11.30;89.60;;;;;;5087611;28;20209;-93
2023/10/26 11:24:48;;;;;;;70.57;65.97;;;11.30;89.70;;;;;;5091114;28;20207;-92
2023/10/26 11:27:17;;;;;;;68.70;64.30;;;11.30;89.70;;;;;;5090269;28;20203;-92
2023/10/26 11:29:44;;;;;;;75.43;70.53;;;11.30;89.70;;;;;;5079171;28;20270;-92
2023/10/26 11:32:26;;;;;;;44.73;41.83;;;11.30;89.80;;;;;;5077931;28;20179;-92
2023/10/26 11:35:23;;;;;;;41.37;38.73;;;11.40;89.80;;;;;;5078326;28;20297;-93
2023/10/26 11:37:53;;;;;;;38.97;36.20;;;11.50;89.70;;;;;;5072844;28;20194;-92
2023/10/26 11:40:27;;;;;;;34.23;31.97;;;11.60;89.50;;;;;;5080769;28;20163;-93
2023/10/26 11:42:58;;;;;;;36.43;33.97;;;11.50;88.80;;;;;;5083925;28;20220;-92
2023/10/26 11:45:27;;;;;;;36.53;34.10;;;11.60;88.70;;;;;;5084692;28;20199;-92
2023/10/26 11:47:54;;;;;;;35.43;32.93;;;11.70;88.80;;;;;;5082989;28;20215;-92
2023/10/26 11:50:19;;;;;;;35.70;33.37;;;11.70;88.50;;;;;;5083215;28;20176;-92
2023/10/26 11:52:45;;;;;;;35.50;33.10;;;11.70;88.30;;;;;;5084046;28;20175;-92
2023/10/26 11:55:14;;;;;;;32.77;30.67;;;11.80;88.10;;;;;;5081726;28;20278;-92
2023/10/26 11:57:40;;;;;;;32.90;30.70;;;11.70;87.80;;;;;;5082921;28;20168;-92
2023/10/26 12:00:06;;;;;;;30.60;28.60;;;11.80;87.50;;;;;;5082294;28;20518;-92
2023/10/26 12:02:32;;;;;;;30.97;28.97;;;11.80;86.80;;;;;;5080717;28;20254;-93
2023/10/26 12:04:59;;;;;;;31.50;29.50;;;11.80;86.70;;;;;;5085368;28;20198;-93
2023/10/26 12:07:25;;;;;;;31.97;29.77;;;11.90;86.90;;;;;;5084724;28;20191;-93
2023/10/26 12:09:50;;;;;;;29.17;27.27;;;11.90;86.80;;;;;;5085776;28;20556;-92
2023/10/26 12:12:16;;;;;;;29.37;27.47;;;12.00;86.50;;;;;;5082621;28;20171;-93
2023/10/26 12:14:43;;;;;;;31.10;29.10;;;11.90;86.00;;;;;;5082762;28;20254;-93
2023/10/26 12:17:11;;;;;;;28.90;26.90;;;12.00;86.40;;;;;;5085975;28;20610;-93
2023/10/26 12:19:36;;;;;;;27.73;25.83;;;12.00;85.90;;;;;;5094970;28;20175;-91
2023/10/26 12:22:02;;;;;;;28.77;26.77;;;12.00;85.90;;;;;;5097598;28;20179;-93
2023/10/26 12:24:29;;;;;;;30.17;28.17;;;12.00;85.80;;;;;;5095383;28;20164;-90